createdAt,value
2019-01-28T00:03:34.804Z,1.62
2019-01-28T00:06:00.571Z,1.67
2019-01-28T00:08:26.327Z,1.68
2019-01-28T00:10:52.092Z,1.69
2019-01-28T00:13:17.847Z,1.74
2019-01-28T00:18:56.928Z,1.74
2019-01-28T00:21:22.684Z,1.74
2019-01-28T00:23:48.442Z,1.75
2019-01-28T00:26:55.886Z,1.81
2019-01-28T00:29:21.658Z,1.80
2019-01-28T00:31:47.427Z,1.78
2019-01-28T00:34:13.187Z,1.77
2019-01-28T00:36:38.952Z,1.74
2019-01-28T00:39:46.391Z,1.76
2019-01-28T00:42:12.153Z,1.79
2019-01-28T00:44:37.907Z,1.71
2019-01-28T00:47:03.793Z,1.64
2019-01-28T00:49:29.543Z,1.56
2019-01-28T00:51:55.327Z,1.56
2019-01-28T00:54:21.077Z,1.58
2019-01-28T00:56:46.851Z,1.64
2019-01-28T00:59:12.611Z,1.65
2019-01-28T01:01:39.008Z,1.65
2019-01-28T01:04:06.054Z,1.67
2019-01-28T01:06:31.817Z,1.68
2019-01-28T01:08:57.569Z,1.71
2019-01-28T01:11:23.340Z,1.72
2019-01-28T01:13:49.402Z,1.73
2019-01-28T01:16:15.145Z,1.72
2019-01-28T01:18:40.891Z,1.71
2019-01-28T01:21:06.660Z,1.68
2019-01-28T01:23:32.429Z,1.57
2019-01-28T01:25:58.206Z,1.49
2019-01-28T01:28:23.965Z,1.41
2019-01-28T01:30:49.734Z,1.34
2019-01-28T01:33:15.494Z,1.34
2019-01-28T01:35:41.261Z,1.26
2019-01-28T01:38:07.028Z,1.25
2019-01-28T01:40:32.795Z,1.25
2019-01-28T01:42:58.560Z,1.22
2019-01-28T01:45:24.316Z,1.23
2019-01-28T01:47:50.098Z,1.21
2019-01-28T01:53:09.549Z,1.30
2019-01-28T01:55:35.313Z,1.42
2019-01-28T01:58:01.066Z,1.50
2019-01-28T02:00:26.828Z,1.55
2019-01-28T02:02:52.594Z,1.55
2019-01-28T02:05:18.346Z,1.59
2019-01-28T02:07:44.118Z,1.65
2019-01-28T02:10:51.584Z,1.64
2019-01-28T02:13:17.349Z,1.67
2019-01-28T02:15:43.107Z,1.67
2019-01-28T02:18:08.875Z,1.68
2019-01-28T02:20:34.634Z,1.66
2019-01-28T02:23:00.397Z,1.58
2019-01-28T02:25:26.151Z,1.55
2019-01-28T02:27:51.921Z,1.53
2019-01-28T02:30:17.685Z,1.54
2019-01-28T02:32:43.548Z,1.53
2019-01-28T02:35:50.989Z,1.57
2019-01-28T02:38:16.753Z,1.54
2019-01-28T02:40:42.516Z,1.53
2019-01-28T02:43:08.290Z,1.54
2019-01-28T02:45:34.056Z,1.57
2019-01-28T02:47:59.830Z,1.57
2019-01-28T02:50:25.587Z,1.56
2019-01-28T02:52:51.350Z,1.61
2019-01-28T02:55:17.107Z,1.62
2019-01-28T02:58:24.556Z,1.65
2019-01-28T03:00:50.313Z,1.64
2019-01-28T03:03:16.076Z,1.69
2019-01-28T03:05:41.828Z,1.69
2019-01-28T03:08:07.608Z,1.71
2019-01-28T03:10:33.378Z,1.69
2019-01-28T03:12:59.123Z,1.73
2019-01-28T03:15:24.873Z,1.73
2019-01-28T03:17:50.642Z,1.76
2019-01-28T03:20:58.081Z,1.70
2019-01-28T03:26:02.260Z,1.73
2019-01-28T03:28:28.046Z,1.74
2019-01-28T03:30:53.803Z,1.75
2019-01-28T03:33:19.533Z,1.71
2019-01-28T03:35:45.284Z,1.74
2019-01-28T03:38:11.065Z,1.72
2019-01-28T03:40:36.818Z,1.72
2019-01-28T03:43:02.600Z,1.66
2019-01-28T03:45:28.349Z,1.63
2019-01-28T03:47:54.128Z,1.63
2019-01-28T03:50:19.874Z,1.62
2019-01-28T03:52:45.827Z,1.66
2019-01-28T03:58:25.480Z,1.64
2019-01-28T04:00:51.230Z,1.63
2019-01-28T04:03:17.000Z,1.61
2019-01-28T04:05:42.850Z,1.64
2019-01-28T04:08:08.627Z,1.63
2019-01-28T04:10:34.376Z,1.65
2019-01-28T04:13:00.172Z,1.65
2019-01-28T04:15:25.934Z,1.65
2019-01-28T04:17:51.802Z,1.65
2019-01-28T04:22:51.457Z,1.66
2019-01-28T04:25:37.128Z,1.61
2019-01-28T04:28:02.884Z,1.61
2019-01-28T04:30:28.659Z,1.60
2019-01-28T04:32:54.418Z,1.62
2019-01-28T04:35:20.189Z,1.59
2019-01-28T04:37:45.943Z,1.61
2019-01-28T04:40:53.395Z,1.62
2019-01-28T04:43:19.164Z,1.59
2019-01-28T04:45:44.925Z,1.66
2019-01-28T04:48:10.693Z,1.63
2019-01-28T04:50:36.471Z,1.63
2019-01-28T04:53:02.226Z,1.65
2019-01-28T04:55:28.004Z,1.68
2019-01-28T04:57:53.774Z,1.73
2019-01-28T05:01:01.221Z,1.72
2019-01-28T05:03:26.976Z,1.73
2019-01-28T05:05:52.757Z,1.74
2019-01-28T05:08:18.508Z,1.75
2019-01-28T05:10:44.288Z,1.75
2019-01-28T05:13:10.049Z,1.75
2019-01-28T05:15:35.828Z,1.77
2019-01-28T05:18:01.555Z,1.77
2019-01-28T05:20:27.322Z,1.79
2019-01-28T05:22:53.108Z,1.78
2019-01-28T05:25:18.964Z,1.77
2019-01-28T05:31:11.806Z,1.76
2019-01-28T05:33:37.554Z,1.79
2019-01-28T05:36:03.416Z,1.76
2019-01-28T05:38:29.202Z,1.78
2019-01-28T05:40:54.947Z,1.79
2019-01-28T05:43:20.707Z,1.83
2019-01-28T05:45:46.490Z,1.75
2019-01-28T05:48:12.258Z,1.80
2019-01-28T05:50:38.095Z,1.79
2019-01-28T05:53:03.854Z,1.83
2019-01-28T05:55:29.618Z,1.80
2019-01-28T05:57:55.378Z,1.86
2019-01-28T06:01:02.825Z,1.83
2019-01-28T06:03:28.593Z,1.84
2019-01-28T06:05:54.353Z,1.85
2019-01-28T06:08:20.100Z,1.82
2019-01-28T06:10:45.877Z,1.84
2019-01-28T06:13:11.625Z,1.88
2019-01-28T06:15:37.400Z,1.87
2019-01-28T06:18:03.180Z,1.84
2019-01-28T06:20:28.922Z,1.88
2019-01-28T06:22:54.669Z,1.84
2019-01-28T06:26:02.123Z,1.87
2019-01-28T06:28:27.878Z,1.86
2019-01-28T06:30:53.645Z,1.86
2019-01-28T06:33:19.413Z,1.88
2019-01-28T06:35:45.174Z,1.89
2019-01-28T06:38:10.926Z,1.87
2019-01-28T06:43:50.254Z,1.89
2019-01-28T06:46:16.031Z,1.87
2019-01-28T06:48:41.794Z,1.84
2019-01-28T06:51:07.556Z,1.84
2019-01-28T06:53:33.325Z,1.85
2019-01-28T06:55:59.088Z,1.84
2019-01-28T06:58:24.843Z,1.83
2019-01-28T07:00:50.634Z,1.86
2019-01-28T07:03:16.382Z,1.88
2019-01-28T07:05:42.132Z,1.87
2019-01-28T07:08:07.905Z,1.89
2019-01-28T07:10:33.647Z,1.91
2019-01-28T07:12:59.415Z,1.93
2019-01-28T07:15:25.161Z,1.93
2019-01-28T07:17:54.894Z,1.92
2019-01-28T07:21:00.272Z,1.90
2019-01-28T07:23:26.052Z,1.90
2019-01-28T07:25:51.795Z,1.89
2019-01-28T07:28:17.563Z,1.91
2019-01-28T07:30:43.313Z,1.92
2019-01-28T07:33:09.077Z,1.93
2019-01-28T07:35:34.826Z,1.93
2019-01-28T07:38:00.590Z,1.93
2019-01-28T07:40:26.351Z,1.94
2019-01-28T07:42:52.114Z,1.93
2019-01-28T07:45:59.543Z,1.97
2019-01-28T07:48:25.334Z,1.97
2019-01-28T07:50:51.081Z,1.95
2019-01-28T07:53:16.847Z,1.94
2019-01-28T07:55:42.599Z,1.94
2019-01-28T07:58:08.360Z,1.93
2019-01-28T08:00:34.212Z,1.94
2019-01-28T08:02:59.973Z,1.92
2019-01-28T08:05:25.939Z,1.91
2019-01-28T08:07:51.690Z,1.93
2019-01-28T08:10:59.135Z,1.93
2019-01-28T08:13:24.922Z,1.94
2019-01-28T08:15:50.675Z,1.95
2019-01-28T08:18:16.440Z,1.96
2019-01-28T08:20:42.187Z,1.94
2019-01-28T08:23:07.942Z,1.94
2019-01-28T08:25:33.719Z,1.92
2019-01-28T08:27:59.565Z,1.98
2019-01-28T08:30:45.216Z,2.01
2019-01-28T08:33:10.975Z,2.03
2019-01-28T08:35:36.846Z,2.01
2019-01-28T08:38:02.605Z,2.02
2019-01-28T08:40:28.383Z,2.03
2019-01-28T08:42:54.130Z,2.04
2019-01-28T08:45:19.994Z,2.07
2019-01-28T08:47:45.761Z,2.08
2019-01-28T08:50:53.195Z,2.10
2019-01-28T08:53:18.962Z,2.12
2019-01-28T08:55:44.998Z,2.11
2019-01-28T08:58:11.056Z,2.11
2019-01-28T09:01:18.478Z,2.12
2019-01-28T09:03:44.236Z,2.12
2019-01-28T09:06:10.156Z,2.15
2019-01-28T09:08:35.913Z,2.19
2019-01-28T09:11:01.681Z,2.23
2019-01-28T09:13:27.434Z,2.29
2019-01-28T09:15:53.203Z,2.34
2019-01-28T09:18:26.060Z,2.28
2019-01-28T09:20:46.622Z,2.27
2019-01-28T09:23:12.374Z,2.28
2019-01-28T09:25:38.166Z,2.30
2019-01-28T09:28:04.283Z,2.30
2019-01-28T09:31:11.720Z,2.28
2019-01-28T09:33:37.477Z,2.26
2019-01-28T09:36:03.247Z,2.30
2019-01-28T09:38:29.106Z,2.26
2019-01-28T09:40:54.879Z,2.30
2019-01-28T09:43:20.628Z,2.33
2019-01-28T09:45:46.402Z,2.31
2019-01-28T09:48:53.850Z,2.34
2019-01-28T09:51:19.617Z,2.27
2019-01-28T09:53:45.378Z,2.33
2019-01-28T09:56:11.151Z,2.36
2019-01-28T09:58:36.906Z,2.36
2019-01-28T10:01:44.374Z,2.34
2019-01-28T10:04:10.131Z,2.36
2019-01-28T10:06:35.904Z,2.38
2019-01-28T10:11:49.087Z,2.42
2019-01-28T10:14:14.829Z,2.44
2019-01-28T10:16:40.609Z,2.45
2019-01-28T10:19:06.347Z,2.43
2019-01-28T10:21:32.115Z,2.47
2019-01-28T10:23:57.869Z,2.49
2019-01-28T10:26:23.650Z,2.53
2019-01-28T10:28:49.410Z,2.57
2019-01-28T10:31:15.195Z,2.63
2019-01-28T10:33:40.946Z,2.61
2019-01-28T10:36:06.703Z,2.61
2019-01-28T10:38:32.468Z,2.64
2019-01-28T10:40:58.233Z,2.66
2019-01-28T10:43:24.000Z,2.71
2019-01-28T10:45:49.756Z,2.69
2019-01-28T10:48:15.697Z,2.66
2019-01-28T10:50:41.487Z,2.72
2019-01-28T10:53:07.348Z,2.79
2019-01-28T10:55:33.109Z,2.80
2019-01-28T10:57:58.882Z,2.90
2019-01-28T11:01:06.316Z,3.02
2019-01-28T11:06:26.159Z,2.94
2019-01-28T11:08:51.921Z,2.93
2019-01-28T11:11:17.703Z,2.97
2019-01-28T11:13:43.552Z,3.04
2019-01-28T11:16:09.438Z,3.02
2019-01-28T11:18:35.302Z,3.05
2019-01-28T11:21:01.074Z,3.09
2019-01-28T11:23:26.897Z,3.07
2019-01-28T11:25:52.817Z,3.11
2019-01-28T11:28:20.328Z,3.08
2019-01-28T11:31:27.783Z,3.07
2019-01-28T11:33:53.604Z,3.12
2019-01-28T11:36:19.514Z,3.22
2019-01-28T11:38:45.430Z,3.32
2019-01-28T11:41:11.237Z,3.22
2019-01-28T11:43:37.152Z,3.31
2019-01-28T11:46:44.566Z,3.40
2019-01-28T11:49:10.335Z,3.30
2019-01-28T11:51:36.094Z,3.15
2019-01-28T11:54:01.980Z,3.15
2019-01-28T11:56:27.732Z,3.09
2019-01-28T11:58:53.502Z,3.12
2019-01-28T12:04:06.558Z,3.06
2019-01-28T12:06:32.406Z,3.09
2019-01-28T12:08:58.175Z,3.11
2019-01-28T12:11:24.038Z,3.16
2019-01-28T12:13:49.806Z,3.10
2019-01-28T12:16:15.558Z,3.06
2019-01-28T12:18:41.360Z,3.04
2019-01-28T12:21:07.214Z,3.02
2019-01-28T12:23:34.705Z,3.03
2019-01-28T12:26:00.651Z,3.02
2019-01-28T12:28:26.451Z,3.03
2019-01-28T12:30:52.212Z,3.03
2019-01-28T12:33:17.970Z,2.98
2019-01-28T12:35:43.744Z,2.94
2019-01-28T12:38:09.492Z,2.90
2019-01-28T12:40:35.252Z,2.89
2019-01-28T12:43:01.006Z,2.86
2019-01-28T12:46:08.467Z,2.91
2019-01-28T12:48:34.234Z,2.89
2019-01-28T12:50:59.996Z,2.89
2019-01-28T12:53:25.759Z,2.90
2019-01-28T12:55:51.529Z,2.90
2019-01-28T12:58:17.268Z,2.86
2019-01-28T13:03:58.140Z,2.94
2019-01-28T13:06:23.908Z,2.98
2019-01-28T13:08:49.652Z,2.94
2019-01-28T13:11:15.418Z,2.91
2019-01-28T13:13:41.380Z,2.98
2019-01-28T13:16:08.932Z,3.04
2019-01-28T13:18:34.687Z,3.08
2019-01-28T13:21:00.458Z,3.11
2019-01-28T13:23:26.314Z,3.13
2019-01-28T13:25:52.083Z,3.10
2019-01-28T13:28:17.829Z,3.08
2019-01-28T13:30:43.595Z,3.00
2019-01-28T13:33:51.017Z,3.03
2019-01-28T13:36:16.785Z,2.99
2019-01-28T13:38:42.534Z,2.96
2019-01-28T13:41:08.298Z,3.02
2019-01-28T13:43:34.053Z,3.02
2019-01-28T13:45:59.803Z,3.01
2019-01-28T13:48:25.585Z,3.04
2019-01-28T13:51:11.249Z,2.98
2019-01-28T13:53:37.004Z,2.98
2019-01-28T13:56:02.855Z,2.90
2019-01-28T13:58:28.621Z,2.88
2019-01-28T14:00:54.475Z,2.89
2019-01-28T14:03:20.237Z,2.89
2019-01-28T14:05:45.995Z,2.83
2019-01-28T14:08:11.770Z,2.76
2019-01-28T14:10:37.525Z,2.73
2019-01-28T14:13:44.974Z,2.71
2019-01-28T14:16:10.722Z,2.80
2019-01-28T14:18:36.483Z,2.75
2019-01-28T14:21:02.442Z,2.75
2019-01-28T14:23:28.209Z,2.73
2019-01-28T14:25:53.961Z,2.72
2019-01-28T14:28:19.725Z,2.70
2019-01-28T14:30:45.471Z,2.71
2019-01-28T14:33:11.238Z,2.76
2019-01-28T14:36:18.671Z,2.77
2019-01-28T14:38:44.424Z,2.73
2019-01-28T14:41:10.176Z,2.73
2019-01-28T14:43:35.942Z,2.72
2019-01-28T14:46:01.698Z,2.76
2019-01-28T14:48:27.469Z,2.77
2019-01-28T14:50:53.416Z,2.72
2019-01-28T14:53:19.171Z,2.76
2019-01-28T14:55:44.916Z,2.78
2019-01-28T14:58:16.331Z,2.77
2019-01-28T15:00:58.333Z,2.76
2019-01-28T15:03:24.099Z,2.74
2019-01-28T15:05:49.847Z,2.71
2019-01-28T15:08:15.612Z,2.71
2019-01-28T15:10:41.368Z,2.68
2019-01-28T15:13:07.213Z,2.66
2019-01-28T15:16:14.657Z,2.69
2019-01-28T15:18:40.428Z,2.70
2019-01-28T15:21:06.182Z,2.63
2019-01-28T15:23:31.924Z,2.67
2019-01-28T15:25:57.693Z,2.66
2019-01-28T15:28:23.435Z,2.59
2019-01-28T15:30:49.207Z,2.59
2019-01-28T15:33:14.981Z,2.60
2019-01-28T15:35:40.821Z,2.61
2019-01-28T15:38:06.572Z,2.60
2019-01-28T15:43:45.779Z,2.59
2019-01-28T15:46:11.538Z,2.53
2019-01-28T15:48:37.326Z,2.47
2019-01-28T15:54:16.234Z,2.44
2019-01-28T15:56:41.991Z,2.42
2019-01-28T15:59:07.745Z,2.44
2019-01-28T16:01:33.505Z,2.42
2019-01-28T16:03:59.259Z,2.51
2019-01-28T16:06:25.026Z,2.60
2019-01-28T16:08:50.776Z,2.65
2019-01-28T16:11:16.536Z,2.55
2019-01-28T16:13:42.285Z,2.57
2019-01-28T16:16:08.045Z,2.60
2019-01-28T16:18:34.977Z,2.54
2019-01-28T16:21:01.469Z,2.44
2019-01-28T16:23:27.223Z,2.23
2019-01-28T16:25:52.999Z,2.06
2019-01-28T16:28:18.762Z,2.01
2019-01-28T16:30:44.531Z,1.88
2019-01-28T16:33:10.275Z,1.79
2019-01-28T16:35:36.056Z,1.66
2019-01-28T16:38:01.921Z,1.56
2019-01-28T16:41:09.360Z,1.53
2019-01-28T16:43:35.221Z,1.45
2019-01-28T16:46:01.012Z,1.41
2019-01-28T16:48:26.781Z,1.34
2019-01-28T16:50:52.556Z,1.27
2019-01-28T16:53:18.305Z,1.30
2019-01-28T16:55:44.052Z,1.21
2019-01-28T16:58:09.818Z,1.13
2019-01-28T17:01:17.275Z,1.07
2019-01-28T17:03:43.034Z,0.96
2019-01-28T17:06:08.844Z,0.85
2019-01-28T17:08:34.592Z,0.80
2019-01-28T17:11:00.360Z,0.71
2019-01-28T17:13:26.121Z,0.64
2019-01-28T17:15:51.876Z,0.58
2019-01-28T17:18:17.640Z,0.52
2019-01-28T17:20:43.399Z,0.40
2019-01-28T17:23:09.167Z,0.36
2019-01-28T17:26:16.585Z,0.37
2019-01-28T17:28:42.352Z,0.40
2019-01-28T17:31:08.106Z,0.39
2019-01-28T17:33:33.871Z,0.43
2019-01-28T17:35:59.613Z,0.42
2019-01-28T17:38:25.387Z,0.41
2019-01-28T17:40:51.142Z,0.45
2019-01-28T17:43:16.911Z,0.43
2019-01-28T17:45:42.660Z,0.45
2019-01-28T17:48:50.139Z,0.41
2019-01-28T17:51:15.881Z,0.39
2019-01-28T17:53:41.645Z,0.29
2019-01-28T17:56:07.409Z,0.24
2019-01-28T17:58:33.185Z,0.18
2019-01-28T18:00:58.927Z,0.15
2019-01-28T18:03:24.696Z,0.23
2019-01-28T18:05:50.457Z,0.20
2019-01-28T18:08:16.216Z,0.15
2019-01-28T18:10:41.967Z,0.14
2019-01-28T18:13:07.732Z,0.03
2019-01-28T18:15:33.484Z,-0.02
2019-01-28T18:17:59.258Z,0.01
2019-01-28T18:20:25.100Z,-0.03
2019-01-28T18:22:50.877Z,0.01
2019-01-28T18:25:36.505Z,-0.01
2019-01-28T18:31:15.709Z,-0.05
2019-01-28T18:34:01.375Z,-0.08
2019-01-28T18:36:27.133Z,-0.08
2019-01-28T18:38:52.895Z,-0.09
2019-01-28T18:41:18.670Z,-0.07
2019-01-28T18:43:44.476Z,-0.13
2019-01-28T18:46:10.232Z,-0.12
2019-01-28T18:48:36.016Z,-0.16
2019-01-28T18:51:01.767Z,-0.13
2019-01-28T18:53:27.542Z,-0.10
2019-01-28T18:55:53.295Z,-0.18
2019-01-28T18:58:19.068Z,-0.14
2019-01-28T19:00:44.829Z,-0.23
2019-01-28T19:03:10.600Z,-0.20
2019-01-28T19:05:56.266Z,-0.22
2019-01-28T19:08:42.038Z,-0.23
2019-01-28T19:11:27.687Z,-0.23
2019-01-28T19:14:13.338Z,-0.26
2019-01-28T19:19:46.430Z,-0.23
2019-01-28T19:22:12.223Z,-0.22
2019-01-28T19:24:38.015Z,-0.24
2019-01-28T19:27:45.433Z,-0.29
2019-01-28T19:30:52.857Z,-0.32
2019-01-28T19:33:18.627Z,-0.29
2019-01-28T19:35:44.398Z,-0.27
2019-01-28T19:38:10.154Z,-0.32
2019-01-28T19:40:35.918Z,-0.31
2019-01-28T19:43:21.570Z,-0.47
2019-01-28T19:45:47.336Z,-0.47
2019-01-28T19:48:13.106Z,-0.51
2019-01-28T19:50:38.874Z,-0.51
2019-01-28T19:53:46.299Z,-0.48
2019-01-28T19:56:12.064Z,-0.48
2019-01-28T19:58:37.824Z,-0.51
2019-01-28T20:01:45.294Z,-0.51
2019-01-28T20:04:11.052Z,-0.55
2019-01-28T20:06:36.815Z,-0.51
2019-01-28T20:09:44.251Z,-0.49
2019-01-28T20:12:10.023Z,-0.54
2019-01-28T20:14:35.769Z,-0.55
2019-01-28T20:17:01.543Z,-0.54
2019-01-28T20:19:27.300Z,-0.53
2019-01-28T20:21:53.067Z,-0.52
2019-01-28T20:24:18.818Z,-0.48
2019-01-28T20:26:44.589Z,-0.44
2019-01-28T20:29:10.336Z,-0.49
2019-01-28T20:31:36.102Z,-0.48
2019-01-28T20:34:01.950Z,-0.51
2019-01-28T20:36:27.732Z,-0.53
2019-01-28T20:38:53.486Z,-0.50
2019-01-28T20:41:19.256Z,-0.51
2019-01-28T20:43:45.001Z,-0.49
2019-01-28T20:46:10.838Z,-0.48
2019-01-28T20:48:36.577Z,-0.51
2019-01-28T20:54:16.218Z,-0.51
2019-01-28T20:56:41.951Z,-0.51
2019-01-28T20:59:27.639Z,-0.55
2019-01-28T21:01:53.428Z,-0.55
2019-01-28T21:04:19.157Z,-0.52
2019-01-28T21:06:44.907Z,-0.54
2019-01-28T21:09:10.702Z,-0.60
2019-01-28T21:11:36.468Z,-0.69
2019-01-28T21:14:02.413Z,-0.71
2019-01-28T21:16:28.189Z,-0.77
2019-01-28T21:18:53.936Z,-0.82
2019-01-28T21:21:19.684Z,-0.82
2019-01-28T21:23:45.457Z,-0.86
2019-01-28T21:26:11.213Z,-0.96
2019-01-28T21:28:36.968Z,-0.98
2019-01-28T21:31:02.788Z,-1.06
2019-01-28T21:33:28.504Z,-1.07
2019-01-28T21:36:14.161Z,-1.14
2019-01-28T21:41:18.077Z,-1.25
2019-01-28T21:43:43.837Z,-1.30
2019-01-28T21:46:09.596Z,-1.34
2019-01-28T21:48:35.388Z,-1.32
2019-01-28T21:51:01.137Z,-1.37
2019-01-28T21:53:26.924Z,-1.46
2019-01-28T21:55:52.683Z,-1.46
2019-01-28T21:58:18.455Z,-1.48
2019-01-28T22:00:44.205Z,-1.55
2019-01-28T22:03:09.974Z,-1.60
2019-01-28T22:05:35.790Z,-1.58
2019-01-28T22:08:01.601Z,-1.60
2019-01-28T22:10:27.362Z,-1.63
2019-01-28T22:12:53.120Z,-1.70
2019-01-28T22:15:18.892Z,-1.70
2019-01-28T22:17:44.632Z,-1.71
2019-01-28T22:20:17.878Z,-1.75
2019-01-28T22:22:43.638Z,-1.78
2019-01-28T22:25:51.061Z,-1.83
2019-01-28T22:28:16.804Z,-1.86
2019-01-28T22:30:42.572Z,-1.92
2019-01-28T22:33:08.983Z,-1.90
2019-01-28T22:35:35.982Z,-1.92
2019-01-28T22:38:01.738Z,-1.93
2019-01-28T22:40:27.562Z,-1.93
2019-01-28T22:42:53.351Z,-1.97
2019-01-28T22:48:27.044Z,-1.99
2019-01-28T22:50:52.822Z,-2.05
2019-01-28T22:53:18.567Z,-2.06
2019-01-28T22:55:44.336Z,-2.08
2019-01-28T22:58:10.126Z,-2.08
2019-01-28T23:01:15.648Z,-2.10
2019-01-28T23:03:41.402Z,-2.09
2019-01-28T23:06:07.165Z,-2.09
2019-01-28T23:08:32.913Z,-2.13
2019-01-28T23:10:58.672Z,-2.13
2019-01-28T23:13:24.431Z,-2.22
2019-01-28T23:16:10.095Z,-2.21
2019-01-28T23:18:35.962Z,-2.21
2019-01-28T23:21:01.732Z,-2.21
2019-01-28T23:23:27.484Z,-2.29
2019-01-28T23:25:53.285Z,-2.29
2019-01-28T23:28:19.034Z,-2.30
2019-01-28T23:30:44.796Z,-2.33
2019-01-28T23:33:10.548Z,-2.31
2019-01-28T23:35:36.300Z,-2.29
2019-01-28T23:38:43.736Z,-2.31
2019-01-28T23:41:09.493Z,-2.33
2019-01-28T23:43:35.243Z,-2.32
2019-01-28T23:46:01.022Z,-2.29
2019-01-28T23:48:26.792Z,-2.28
2019-01-28T23:50:52.537Z,-2.38
2019-01-28T23:53:18.303Z,-2.36
2019-01-28T23:55:44.049Z,-2.37
2019-01-28T23:58:11.191Z,-2.40
